createdAt,value
2018-10-07T00:01:28.697Z,5.25
2018-10-07T00:06:31.967Z,4.22
2018-10-07T00:11:35.276Z,6.65
2018-10-07T00:16:38.541Z,4.33
2018-10-07T00:21:41.821Z,4.65
2018-10-07T00:26:45.085Z,4.72
2018-10-07T00:31:53.754Z,4.15
2018-10-07T00:36:57.053Z,5.22
2018-10-07T00:42:00.309Z,6.47
2018-10-07T00:47:03.585Z,5.55
2018-10-07T00:52:06.924Z,4.08
2018-10-07T00:57:10.196Z,4.50
2018-10-07T01:02:13.464Z,3.37
2018-10-07T01:07:16.719Z,3.92
2018-10-07T01:12:19.987Z,4.42
2018-10-07T01:17:23.245Z,6.75
2018-10-07T01:22:26.506Z,6.28
2018-10-07T01:27:29.763Z,4.62
2018-10-07T01:32:33.038Z,3.67
2018-10-07T01:37:36.305Z,4.65
2018-10-07T01:42:39.569Z,4.30
2018-10-07T01:47:42.860Z,4.67
2018-10-07T01:52:46.124Z,4.85
2018-10-07T01:57:49.388Z,4.65
2018-10-07T02:02:52.677Z,4.60
2018-10-07T02:07:56.093Z,4.60
2018-10-07T02:12:59.389Z,4.55
2018-10-07T02:18:03.049Z,10.30
2018-10-07T02:23:06.684Z,6.53
2018-10-07T02:28:09.976Z,4.58
2018-10-07T02:33:13.299Z,5.67
2018-10-07T02:38:16.590Z,7.47
2018-10-07T02:43:19.901Z,7.37
2018-10-07T02:48:23.216Z,4.25
2018-10-07T02:53:26.687Z,3.83
2018-10-07T02:58:29.921Z,5.37
2018-10-07T03:03:33.208Z,5.95
2018-10-07T03:08:36.508Z,5.95
2018-10-07T03:13:39.849Z,5.17
2018-10-07T03:18:43.132Z,4.00
2018-10-07T03:23:47.455Z,3.95
2018-10-07T03:28:50.744Z,3.87
2018-10-07T03:33:54.034Z,5.37
2018-10-07T03:38:57.432Z,4.42
2018-10-07T03:44:00.749Z,4.50
2018-10-07T03:49:04.051Z,5.00
2018-10-07T03:54:07.335Z,5.03
2018-10-07T03:59:10.636Z,4.70
2018-10-07T04:04:13.924Z,4.08
2018-10-07T04:09:17.236Z,3.83
2018-10-07T04:14:20.532Z,6.58
2018-10-07T04:19:23.821Z,4.92
2018-10-07T04:24:28.979Z,5.17
2018-10-07T04:29:32.269Z,4.30
2018-10-07T04:34:35.561Z,4.40
2018-10-07T04:39:38.871Z,4.70
2018-10-07T04:44:42.155Z,3.60
2018-10-07T04:49:45.436Z,4.47
2018-10-07T04:54:48.732Z,5.15
2018-10-07T04:59:52.012Z,5.53
2018-10-07T05:04:55.337Z,3.98
2018-10-07T05:10:10.067Z,6.65
2018-10-07T05:15:13.368Z,5.17
2018-10-07T05:20:16.668Z,4.62
2018-10-07T05:25:19.952Z,6.07
2018-10-07T05:30:23.241Z,6.27
2018-10-07T05:35:26.535Z,7.50
2018-10-07T05:40:29.840Z,6.37
2018-10-07T05:45:33.134Z,5.65
2018-10-07T05:50:36.476Z,6.28
2018-10-07T05:55:39.752Z,5.45
2018-10-07T06:00:43.069Z,5.30
2018-10-07T06:05:46.537Z,5.87
2018-10-07T06:10:49.795Z,7.13
2018-10-07T06:15:53.066Z,6.33
2018-10-07T06:20:56.344Z,6.87
2018-10-07T06:26:00.168Z,5.27
2018-10-07T06:31:03.404Z,6.55
2018-10-07T06:36:06.684Z,7.20
2018-10-07T06:41:09.953Z,7.70
2018-10-07T06:46:13.227Z,7.25
2018-10-07T06:51:16.499Z,7.37
2018-10-07T06:56:19.769Z,9.80
2018-10-07T07:01:23.028Z,12.63
2018-10-07T07:06:26.352Z,13.93
2018-10-07T07:11:29.788Z,18.32
2018-10-07T07:16:33.289Z,11.65
2018-10-07T07:21:36.560Z,14.55
2018-10-07T07:26:39.837Z,11.28
2018-10-07T07:31:43.096Z,12.50
2018-10-07T07:36:46.405Z,11.15
2018-10-07T07:41:49.692Z,13.90
2018-10-07T07:46:52.959Z,15.50
2018-10-07T07:51:56.229Z,14.23
2018-10-07T07:56:59.504Z,20.95
2018-10-07T08:02:02.776Z,15.57
2018-10-07T08:07:06.072Z,19.92
2018-10-07T08:12:09.348Z,19.42
2018-10-07T08:17:12.766Z,18.70
2018-10-07T08:22:16.104Z,15.53
2018-10-07T08:27:19.371Z,17.57
2018-10-07T08:32:22.652Z,14.90
2018-10-07T08:37:25.936Z,19.82
2018-10-07T08:42:29.267Z,21.80
2018-10-07T08:47:32.540Z,16.80
2018-10-07T08:52:35.816Z,14.57
2018-10-07T08:57:39.093Z,13.38
2018-10-07T09:02:42.384Z,19.17
2018-10-07T09:07:45.739Z,16.37
2018-10-07T09:12:49.037Z,14.50
2018-10-07T09:17:52.416Z,15.13
2018-10-07T09:22:55.688Z,12.15
2018-10-07T09:27:59.592Z,12.15
2018-10-07T09:33:02.857Z,12.98
2018-10-07T09:38:06.214Z,19.07
2018-10-07T09:43:09.504Z,12.88
2018-10-07T09:48:12.812Z,11.48
2018-10-07T10:33:44.724Z,28.42
2018-10-07T10:39:06.080Z,30.80
2018-10-07T10:44:23.825Z,36.95
2018-10-07T10:49:31.192Z,28.13
2018-10-07T10:54:45.086Z,30.17
2018-10-07T10:59:55.957Z,20.88
2018-10-07T11:05:10.220Z,16.27
2018-10-07T11:10:22.853Z,12.65
2018-10-07T11:15:32.648Z,19.07
2018-10-07T11:22:49.380Z,15.25
2018-10-07T11:27:59.219Z,14.35
2018-10-07T11:33:13.500Z,13.08
2018-10-07T11:38:26.097Z,11.03
2018-10-07T11:43:42.104Z,11.20
2018-10-07T11:48:51.544Z,10.38
2018-10-07T11:53:58.796Z,8.08
2018-10-07T11:59:02.340Z,7.72
2018-10-07T12:04:05.627Z,7.55
2018-10-07T12:09:09.056Z,6.87
2018-10-07T12:14:12.428Z,5.42
2018-10-07T12:19:15.982Z,5.03
2018-10-07T12:24:19.288Z,4.17
2018-10-07T12:29:23.836Z,5.42
2018-10-07T12:34:27.180Z,2.95
2018-10-07T12:39:30.599Z,2.67
2018-10-07T12:44:33.912Z,7.58
2018-10-07T12:49:37.204Z,2.90
2018-10-07T12:54:40.489Z,3.10
2018-10-07T12:59:43.764Z,4.15
2018-10-07T13:04:47.036Z,4.25
2018-10-07T13:09:50.312Z,2.85
2018-10-07T13:14:53.581Z,2.92
2018-10-07T13:19:56.885Z,7.78
2018-10-07T13:25:00.177Z,3.95
2018-10-07T13:30:05.604Z,3.72
2018-10-07T13:35:08.882Z,6.58
2018-10-07T13:40:13.041Z,2.43
2018-10-07T13:45:16.432Z,2.87
2018-10-07T13:50:19.709Z,6.20
2018-10-07T13:55:22.972Z,3.20
2018-10-07T14:00:26.250Z,3.98
2018-10-07T14:05:29.524Z,9.85
2018-10-07T14:10:32.809Z,4.72
2018-10-07T14:15:36.100Z,2.92
2018-10-07T14:20:39.364Z,4.97
2018-10-07T14:25:42.650Z,5.10
2018-10-07T14:30:45.916Z,1.82
2018-10-07T14:35:49.169Z,2.10
2018-10-07T14:40:52.423Z,1.55
2018-10-07T14:45:55.687Z,2.10
2018-10-07T14:50:58.977Z,2.25
2018-10-07T14:56:02.227Z,1.42
2018-10-07T15:01:05.492Z,1.00
2018-10-07T15:06:08.754Z,2.30
2018-10-07T15:11:12.024Z,1.02
2018-10-07T15:16:15.431Z,1.47
2018-10-07T15:21:18.699Z,0.88
2018-10-07T15:26:21.973Z,1.10
2018-10-07T15:31:25.291Z,0.57
2018-10-07T15:36:28.733Z,2.17
2018-10-07T15:41:32.024Z,2.02
2018-10-07T15:46:35.336Z,1.10
2018-10-07T15:51:38.624Z,0.50
2018-10-07T15:56:41.948Z,1.30
2018-10-07T16:01:45.179Z,0.85
2018-10-07T16:06:48.436Z,2.50
2018-10-07T16:11:51.713Z,0.80
2018-10-07T16:16:54.983Z,0.85
2018-10-07T16:21:58.236Z,0.78
2018-10-07T16:27:01.516Z,0.68
2018-10-07T16:32:04.797Z,0.98
2018-10-07T16:37:08.082Z,1.02
2018-10-07T16:42:11.378Z,1.15
2018-10-07T16:47:19.826Z,0.62
2018-10-07T16:52:24.493Z,2.80
2018-10-07T16:57:27.987Z,2.47
2018-10-07T17:02:31.245Z,3.95
2018-10-07T17:07:34.509Z,0.88
2018-10-07T17:12:37.776Z,0.82
2018-10-07T17:17:41.034Z,2.92
2018-10-07T17:22:44.299Z,1.80
2018-10-07T17:27:47.552Z,6.47
2018-10-07T17:32:50.869Z,6.95
2018-10-07T17:37:54.509Z,2.65
2018-10-07T17:42:58.360Z,1.05
2018-10-07T17:48:02.392Z,1.92
2018-10-07T17:53:05.849Z,1.30
2018-10-07T17:58:09.153Z,0.82
2018-10-07T18:03:12.531Z,1.15
2018-10-07T18:08:15.793Z,0.62
2018-10-07T18:13:19.119Z,1.05
2018-10-07T18:18:22.660Z,1.00
2018-10-07T18:23:25.916Z,0.40
2018-10-07T18:28:29.180Z,0.98
2018-10-07T18:33:32.440Z,0.70
2018-10-07T18:38:35.700Z,1.05
2018-10-07T18:43:38.999Z,1.40
2018-10-07T18:48:42.360Z,0.70
2018-10-07T18:53:45.622Z,0.68
2018-10-07T18:58:48.887Z,1.57
2018-10-07T19:03:52.859Z,0.80
2018-10-07T19:08:56.147Z,1.75
2018-10-07T19:13:59.412Z,1.47
2018-10-07T19:19:02.675Z,0.50
2018-10-07T19:24:05.992Z,2.55
2018-10-07T19:29:09.281Z,0.62
2018-10-07T19:34:13.283Z,0.50
2018-10-07T19:39:16.809Z,1.00
2018-10-07T19:44:20.283Z,2.22
2018-10-07T19:49:23.634Z,1.05
2018-10-07T19:54:27.000Z,0.67
2018-10-07T19:59:30.309Z,0.55
2018-10-07T20:04:33.589Z,1.15
2018-10-07T20:09:36.846Z,0.75
2018-10-07T20:14:40.132Z,1.55
2018-10-07T20:19:43.601Z,2.70
2018-10-07T20:24:47.217Z,1.10
2018-10-07T20:29:50.883Z,2.67
2018-10-07T20:34:54.153Z,1.32
2018-10-07T20:39:57.412Z,1.02
2018-10-07T20:45:00.703Z,1.02
2018-10-07T20:50:03.988Z,2.58
2018-10-07T20:55:07.277Z,1.00
2018-10-07T21:00:10.548Z,1.00
2018-10-07T21:05:13.824Z,1.32
2018-10-07T21:10:17.413Z,1.27
2018-10-07T21:15:20.681Z,0.93
2018-10-07T21:20:23.946Z,0.73
2018-10-07T21:25:27.207Z,1.55
2018-10-07T21:30:30.479Z,1.70
2018-10-07T21:35:33.734Z,5.08
2018-10-07T21:40:36.982Z,0.78
2018-10-07T21:45:40.244Z,0.93
2018-10-07T21:50:43.497Z,0.60
2018-10-07T21:55:46.751Z,1.30
2018-10-07T22:00:50.013Z,1.30
2018-10-07T22:05:53.319Z,0.98
2018-10-07T22:10:56.608Z,1.10
2018-10-07T22:15:59.880Z,1.00
2018-10-07T22:21:03.171Z,1.12
2018-10-07T22:26:06.661Z,1.15
2018-10-07T22:31:09.972Z,0.88
2018-10-07T22:36:13.576Z,0.90
2018-10-07T22:41:16.899Z,0.60
2018-10-07T22:46:20.457Z,0.90
2018-10-07T22:51:23.809Z,0.90
2018-10-07T22:56:27.105Z,1.15
2018-10-07T23:01:30.412Z,0.60
2018-10-07T23:06:34.559Z,0.95
2018-10-07T23:11:37.964Z,0.80
2018-10-07T23:16:41.878Z,1.12
2018-10-07T23:21:45.215Z,0.40
2018-10-07T23:26:49.646Z,1.02
2018-10-07T23:31:52.928Z,0.90
2018-10-07T23:36:56.239Z,1.40
2018-10-07T23:42:01.396Z,0.80
2018-10-07T23:47:06.058Z,0.78
2018-10-07T23:52:09.423Z,1.87
2018-10-07T23:57:13.234Z,0.95
